sensor_id;sensor_type;location;lat;lon;timestamp;P1;durP1;ratioP1;P2;durP2;ratioP2
14414;SDS011;7307;50.852;4.314;2022-07-29T00:00:03;3.45;;;1.55;;
14414;SDS011;7307;50.852;4.314;2022-07-29T00:02:30;2.15;;;1.33;;
14414;SDS011;7307;50.852;4.314;2022-07-29T00:04:57;2.00;;;1.00;;
14414;SDS011;7307;50.852;4.314;2022-07-29T00:07:22;2.40;;;1.30;;
14414;SDS011;7307;50.852;4.314;2022-07-29T00:09:48;3.88;;;1.40;;
14414;SDS011;7307;50.852;4.314;2022-07-29T00:12:14;3.33;;;1.33;;
14414;SDS011;7307;50.852;4.314;2022-07-29T00:14:43;3.33;;;1.10;;
14414;SDS011;7307;50.852;4.314;2022-07-29T00:17:08;2.95;;;1.50;;
14414;SDS011;7307;50.852;4.314;2022-07-29T00:19:34;3.20;;;0.95;;
14414;SDS011;7307;50.852;4.314;2022-07-29T00:22:00;4.78;;;1.40;;
14414;SDS011;7307;50.852;4.314;2022-07-29T00:24:26;3.58;;;1.27;;
14414;SDS011;7307;50.852;4.314;2022-07-29T00:26:51;3.08;;;1.30;;
14414;SDS011;7307;50.852;4.314;2022-07-29T00:29:17;3.38;;;1.30;;
14414;SDS011;7307;50.852;4.314;2022-07-29T00:31:43;1.00;;;0.93;;
14414;SDS011;7307;50.852;4.314;2022-07-29T00:34:09;3.10;;;1.20;;
14414;SDS011;7307;50.852;4.314;2022-07-29T00:36:54;3.53;;;1.25;;
14414;SDS011;7307;50.852;4.314;2022-07-29T00:39:20;2.63;;;1.42;;
14414;SDS011;7307;50.852;4.314;2022-07-29T00:41:45;1.33;;;0.93;;
14414;SDS011;7307;50.852;4.314;2022-07-29T00:44:11;5.32;;;1.48;;
14414;SDS011;7307;50.852;4.314;2022-07-29T00:46:37;3.65;;;1.30;;
14414;SDS011;7307;50.852;4.314;2022-07-29T00:49:02;3.33;;;1.40;;
14414;SDS011;7307;50.852;4.314;2022-07-29T00:51:28;2.63;;;1.40;;
14414;SDS011;7307;50.852;4.314;2022-07-29T00:53:54;3.17;;;1.38;;
14414;SDS011;7307;50.852;4.314;2022-07-29T00:56:20;2.00;;;1.60;;
14414;SDS011;7307;50.852;4.314;2022-07-29T00:58:46;2.22;;;1.13;;
14414;SDS011;7307;50.852;4.314;2022-07-29T01:01:13;1.70;;;1.10;;
14414;SDS011;7307;50.852;4.314;2022-07-29T01:03:38;2.35;;;1.27;;
14414;SDS011;7307;50.852;4.314;2022-07-29T01:06:04;2.03;;;1.10;;
14414;SDS011;7307;50.852;4.314;2022-07-29T01:08:30;2.53;;;1.30;;
14414;SDS011;7307;50.852;4.314;2022-07-29T01:10:58;5.88;;;1.67;;
14414;SDS011;7307;50.852;4.314;2022-07-29T01:13:26;3.60;;;1.23;;
14414;SDS011;7307;50.852;4.314;2022-07-29T01:15:59;1.55;;;1.20;;
14414;SDS011;7307;50.852;4.314;2022-07-29T01:18:41;2.05;;;1.30;;
14414;SDS011;7307;50.852;4.314;2022-07-29T01:27:03;2.25;;;1.30;;
14414;SDS011;7307;50.852;4.314;2022-07-29T01:29:36;2.20;;;1.35;;
14414;SDS011;7307;50.852;4.314;2022-07-29T01:32:13;2.33;;;1.30;;
14414;SDS011;7307;50.852;4.314;2022-07-29T01:37:18;1.73;;;1.00;;
14414;SDS011;7307;50.852;4.314;2022-07-29T01:39:47;2.92;;;1.15;;
14414;SDS011;7307;50.852;4.314;2022-07-29T01:45:23;3.60;;;1.40;;
14414;SDS011;7307;50.852;4.314;2022-07-29T01:48:02;2.67;;;1.20;;
14414;SDS011;7307;50.852;4.314;2022-07-29T01:50:46;3.03;;;1.38;;
14414;SDS011;7307;50.852;4.314;2022-07-29T01:53:42;2.65;;;1.33;;
14414;SDS011;7307;50.852;4.314;2022-07-29T01:56:12;4.72;;;1.55;;
14414;SDS011;7307;50.852;4.314;2022-07-29T01:58:40;1.25;;;1.02;;
14414;SDS011;7307;50.852;4.314;2022-07-29T02:01:08;3.65;;;1.60;;
14414;SDS011;7307;50.852;4.314;2022-07-29T02:03:36;1.80;;;1.10;;
14414;SDS011;7307;50.852;4.314;2022-07-29T02:06:04;2.72;;;1.52;;
14414;SDS011;7307;50.852;4.314;2022-07-29T02:08:31;2.08;;;1.33;;
14414;SDS011;7307;50.852;4.314;2022-07-29T02:10:58;2.50;;;1.25;;
14414;SDS011;7307;50.852;4.314;2022-07-29T02:13:25;4.57;;;1.40;;
14414;SDS011;7307;50.852;4.314;2022-07-29T02:15:53;2.70;;;1.25;;
14414;SDS011;7307;50.852;4.314;2022-07-29T02:18:20;3.85;;;1.30;;
14414;SDS011;7307;50.852;4.314;2022-07-29T02:20:49;3.35;;;1.38;;
14414;SDS011;7307;50.852;4.314;2022-07-29T02:23:18;1.85;;;1.30;;
14414;SDS011;7307;50.852;4.314;2022-07-29T02:25:48;4.78;;;1.30;;
14414;SDS011;7307;50.852;4.314;2022-07-29T02:28:16;2.55;;;1.50;;
14414;SDS011;7307;50.852;4.314;2022-07-29T02:30:43;3.00;;;1.15;;
14414;SDS011;7307;50.852;4.314;2022-07-29T02:33:12;3.63;;;1.48;;
14414;SDS011;7307;50.852;4.314;2022-07-29T02:35:40;2.30;;;1.02;;
14414;SDS011;7307;50.852;4.314;2022-07-29T02:38:09;1.88;;;1.33;;
14414;SDS011;7307;50.852;4.314;2022-07-29T02:41:39;4.88;;;1.30;;
14414;SDS011;7307;50.852;4.314;2022-07-29T02:44:15;4.18;;;1.30;;
14414;SDS011;7307;50.852;4.314;2022-07-29T02:46:50;1.88;;;1.00;;
14414;SDS011;7307;50.852;4.314;2022-07-29T02:49:36;3.15;;;1.42;;
14414;SDS011;7307;50.852;4.314;2022-07-29T02:52:18;1.77;;;1.10;;
14414;SDS011;7307;50.852;4.314;2022-07-29T02:57:36;3.85;;;1.20;;
14414;SDS011;7307;50.852;4.314;2022-07-29T03:00:07;6.00;;;1.65;;
14414;SDS011;7307;50.852;4.314;2022-07-29T03:02:38;2.53;;;1.30;;
14414;SDS011;7307;50.852;4.314;2022-07-29T03:05:07;4.00;;;1.27;;
14414;SDS011;7307;50.852;4.314;2022-07-29T03:07:38;1.60;;;1.20;;
14414;SDS011;7307;50.852;4.314;2022-07-29T03:10:06;1.52;;;1.25;;
14414;SDS011;7307;50.852;4.314;2022-07-29T03:12:33;3.28;;;1.38;;
14414;SDS011;7307;50.852;4.314;2022-07-29T03:14:59;1.80;;;1.02;;
14414;SDS011;7307;50.852;4.314;2022-07-29T03:17:26;2.50;;;1.20;;
14414;SDS011;7307;50.852;4.314;2022-07-29T03:19:53;3.00;;;1.42;;
14414;SDS011;7307;50.852;4.314;2022-07-29T03:22:19;3.58;;;1.45;;
14414;SDS011;7307;50.852;4.314;2022-07-29T03:24:45;3.13;;;1.45;;
14414;SDS011;7307;50.852;4.314;2022-07-29T03:27:11;4.25;;;1.40;;
14414;SDS011;7307;50.852;4.314;2022-07-29T03:29:37;2.03;;;1.35;;
14414;SDS011;7307;50.852;4.314;2022-07-29T03:32:03;2.30;;;1.60;;
14414;SDS011;7307;50.852;4.314;2022-07-29T03:34:30;3.05;;;1.30;;
14414;SDS011;7307;50.852;4.314;2022-07-29T03:36:55;2.65;;;1.10;;
14414;SDS011;7307;50.852;4.314;2022-07-29T03:39:21;2.63;;;1.52;;
14414;SDS011;7307;50.852;4.314;2022-07-29T03:41:52;4.10;;;1.55;;
14414;SDS011;7307;50.852;4.314;2022-07-29T03:44:21;2.03;;;1.20;;
14414;SDS011;7307;50.852;4.314;2022-07-29T03:46:48;1.85;;;1.15;;
14414;SDS011;7307;50.852;4.314;2022-07-29T03:49:16;1.33;;;1.10;;
14414;SDS011;7307;50.852;4.314;2022-07-29T03:51:44;2.45;;;1.10;;
14414;SDS011;7307;50.852;4.314;2022-07-29T03:54:10;2.03;;;1.42;;
14414;SDS011;7307;50.852;4.314;2022-07-29T03:56:39;2.40;;;1.25;;
14414;SDS011;7307;50.852;4.314;2022-07-29T03:59:08;2.78;;;1.58;;
14414;SDS011;7307;50.852;4.314;2022-07-29T04:01:38;2.75;;;1.40;;
14414;SDS011;7307;50.852;4.314;2022-07-29T04:04:04;2.85;;;1.60;;
14414;SDS011;7307;50.852;4.314;2022-07-29T04:06:37;2.70;;;1.55;;
14414;SDS011;7307;50.852;4.314;2022-07-29T04:09:04;3.33;;;1.77;;
14414;SDS011;7307;50.852;4.314;2022-07-29T04:11:30;2.70;;;1.38;;
14414;SDS011;7307;50.852;4.314;2022-07-29T04:13:55;1.88;;;1.30;;
14414;SDS011;7307;50.852;4.314;2022-07-29T04:16:21;3.33;;;1.40;;
14414;SDS011;7307;50.852;4.314;2022-07-29T04:18:47;3.10;;;1.40;;
14414;SDS011;7307;50.852;4.314;2022-07-29T04:21:12;1.63;;;0.95;;
14414;SDS011;7307;50.852;4.314;2022-07-29T04:23:38;4.70;;;1.70;;
14414;SDS011;7307;50.852;4.314;2022-07-29T04:26:04;4.22;;;1.40;;
14414;SDS011;7307;50.852;4.314;2022-07-29T04:28:29;2.35;;;1.48;;
14414;SDS011;7307;50.852;4.314;2022-07-29T04:30:55;2.78;;;1.40;;
14414;SDS011;7307;50.852;4.314;2022-07-29T04:33:21;5.00;;;2.10;;
14414;SDS011;7307;50.852;4.314;2022-07-29T04:35:46;2.95;;;1.85;;
14414;SDS011;7307;50.852;4.314;2022-07-29T04:38:12;2.75;;;1.55;;
14414;SDS011;7307;50.852;4.314;2022-07-29T04:40:37;3.88;;;1.65;;
14414;SDS011;7307;50.852;4.314;2022-07-29T04:43:04;3.22;;;1.60;;
14414;SDS011;7307;50.852;4.314;2022-07-29T04:45:29;3.28;;;1.63;;
14414;SDS011;7307;50.852;4.314;2022-07-29T04:47:55;4.22;;;1.83;;
14414;SDS011;7307;50.852;4.314;2022-07-29T04:50:21;1.88;;;1.40;;
14414;SDS011;7307;50.852;4.314;2022-07-29T04:52:47;3.60;;;2.00;;
14414;SDS011;7307;50.852;4.314;2022-07-29T04:55:12;4.55;;;1.75;;
14414;SDS011;7307;50.852;4.314;2022-07-29T04:57:38;2.08;;;1.35;;
14414;SDS011;7307;50.852;4.314;2022-07-29T05:00:04;3.50;;;1.80;;
14414;SDS011;7307;50.852;4.314;2022-07-29T05:02:31;3.45;;;1.90;;
14414;SDS011;7307;50.852;4.314;2022-07-29T05:04:57;5.43;;;1.80;;
14414;SDS011;7307;50.852;4.314;2022-07-29T05:07:23;3.95;;;1.90;;
14414;SDS011;7307;50.852;4.314;2022-07-29T05:09:48;3.67;;;1.42;;
14414;SDS011;7307;50.852;4.314;2022-07-29T05:12:14;4.32;;;1.73;;
14414;SDS011;7307;50.852;4.314;2022-07-29T05:14:40;5.00;;;1.70;;
14414;SDS011;7307;50.852;4.314;2022-07-29T05:17:05;3.42;;;1.90;;
14414;SDS011;7307;50.852;4.314;2022-07-29T05:19:31;4.55;;;1.90;;
14414;SDS011;7307;50.852;4.314;2022-07-29T05:21:57;4.95;;;2.00;;
14414;SDS011;7307;50.852;4.314;2022-07-29T05:24:23;6.45;;;1.98;;
14414;SDS011;7307;50.852;4.314;2022-07-29T05:26:48;3.78;;;1.83;;
14414;SDS011;7307;50.852;4.314;2022-07-29T05:29:14;6.07;;;1.58;;
14414;SDS011;7307;50.852;4.314;2022-07-29T05:31:39;3.15;;;1.73;;
14414;SDS011;7307;50.852;4.314;2022-07-29T05:34:05;2.78;;;1.83;;
14414;SDS011;7307;50.852;4.314;2022-07-29T05:36:31;2.53;;;1.50;;
14414;SDS011;7307;50.852;4.314;2022-07-29T05:38:56;6.07;;;1.60;;
14414;SDS011;7307;50.852;4.314;2022-07-29T05:41:22;4.38;;;1.98;;
14414;SDS011;7307;50.852;4.314;2022-07-29T05:43:48;2.40;;;1.40;;
14414;SDS011;7307;50.852;4.314;2022-07-29T05:46:13;2.60;;;1.65;;
14414;SDS011;7307;50.852;4.314;2022-07-29T05:48:40;6.22;;;1.88;;
14414;SDS011;7307;50.852;4.314;2022-07-29T05:51:05;4.85;;;1.90;;
14414;SDS011;7307;50.852;4.314;2022-07-29T05:53:31;4.00;;;2.00;;
14414;SDS011;7307;50.852;4.314;2022-07-29T05:55:56;5.03;;;1.80;;
14414;SDS011;7307;50.852;4.314;2022-07-29T05:58:22;5.75;;;1.90;;
14414;SDS011;7307;50.852;4.314;2022-07-29T06:00:48;7.70;;;2.10;;
14414;SDS011;7307;50.852;4.314;2022-07-29T06:03:14;7.55;;;1.98;;
14414;SDS011;7307;50.852;4.314;2022-07-29T06:05:39;4.03;;;2.13;;
14414;SDS011;7307;50.852;4.314;2022-07-29T06:08:05;5.68;;;1.92;;
14414;SDS011;7307;50.852;4.314;2022-07-29T06:10:32;3.40;;;1.98;;
14414;SDS011;7307;50.852;4.314;2022-07-29T06:12:59;3.38;;;1.80;;
14414;SDS011;7307;50.852;4.314;2022-07-29T06:15:25;4.53;;;2.15;;
14414;SDS011;7307;50.852;4.314;2022-07-29T06:17:51;5.70;;;1.90;;
14414;SDS011;7307;50.852;4.314;2022-07-29T06:20:17;6.10;;;2.38;;
14414;SDS011;7307;50.852;4.314;2022-07-29T06:22:43;4.97;;;1.67;;
14414;SDS011;7307;50.852;4.314;2022-07-29T06:25:09;7.70;;;2.28;;
14414;SDS011;7307;50.852;4.314;2022-07-29T06:27:34;5.03;;;2.13;;
14414;SDS011;7307;50.852;4.314;2022-07-29T06:30:00;6.70;;;2.38;;
14414;SDS011;7307;50.852;4.314;2022-07-29T06:32:26;5.88;;;2.28;;
14414;SDS011;7307;50.852;4.314;2022-07-29T06:34:52;7.68;;;2.40;;
14414;SDS011;7307;50.852;4.314;2022-07-29T06:37:18;6.72;;;2.50;;
14414;SDS011;7307;50.852;4.314;2022-07-29T06:39:44;6.90;;;2.50;;
14414;SDS011;7307;50.852;4.314;2022-07-29T06:42:10;7.00;;;2.28;;
14414;SDS011;7307;50.852;4.314;2022-07-29T06:44:35;5.88;;;2.13;;
14414;SDS011;7307;50.852;4.314;2022-07-29T06:47:01;6.10;;;2.00;;
14414;SDS011;7307;50.852;4.314;2022-07-29T06:49:27;5.38;;;2.05;;
14414;SDS011;7307;50.852;4.314;2022-07-29T06:51:53;5.30;;;2.33;;
14414;SDS011;7307;50.852;4.314;2022-07-29T06:54:20;5.68;;;1.65;;
14414;SDS011;7307;50.852;4.314;2022-07-29T06:56:46;4.30;;;2.10;;
14414;SDS011;7307;50.852;4.314;2022-07-29T06:59:12;5.68;;;1.95;;
14414;SDS011;7307;50.852;4.314;2022-07-29T07:01:39;5.60;;;2.03;;
14414;SDS011;7307;50.852;4.314;2022-07-29T07:04:07;3.83;;;1.75;;
14414;SDS011;7307;50.852;4.314;2022-07-29T07:06:33;3.60;;;1.92;;
14414;SDS011;7307;50.852;4.314;2022-07-29T07:08:59;6.10;;;1.70;;
14414;SDS011;7307;50.852;4.314;2022-07-29T07:11:25;6.93;;;2.25;;
14414;SDS011;7307;50.852;4.314;2022-07-29T07:13:51;3.47;;;1.85;;
14414;SDS011;7307;50.852;4.314;2022-07-29T07:16:17;3.63;;;1.90;;
14414;SDS011;7307;50.852;4.314;2022-07-29T07:18:43;5.53;;;1.80;;
14414;SDS011;7307;50.852;4.314;2022-07-29T07:21:10;5.93;;;2.00;;
14414;SDS011;7307;50.852;4.314;2022-07-29T07:23:36;3.67;;;1.75;;
14414;SDS011;7307;50.852;4.314;2022-07-29T07:26:02;5.03;;;1.80;;
14414;SDS011;7307;50.852;4.314;2022-07-29T07:28:28;5.47;;;1.70;;
14414;SDS011;7307;50.852;4.314;2022-07-29T07:30:54;5.32;;;2.05;;
14414;SDS011;7307;50.852;4.314;2022-07-29T07:33:20;4.95;;;1.90;;
14414;SDS011;7307;50.852;4.314;2022-07-29T07:35:46;4.47;;;1.73;;
14414;SDS011;7307;50.852;4.314;2022-07-29T07:38:12;3.72;;;1.60;;
14414;SDS011;7307;50.852;4.314;2022-07-29T07:40:38;2.83;;;1.55;;
14414;SDS011;7307;50.852;4.314;2022-07-29T07:43:03;3.00;;;1.70;;
14414;SDS011;7307;50.852;4.314;2022-07-29T07:45:29;2.15;;;1.60;;
14414;SDS011;7307;50.852;4.314;2022-07-29T07:47:57;3.58;;;1.60;;
14414;SDS011;7307;50.852;4.314;2022-07-29T07:50:23;5.28;;;2.15;;
14414;SDS011;7307;50.852;4.314;2022-07-29T07:52:53;2.75;;;1.52;;
14414;SDS011;7307;50.852;4.314;2022-07-29T07:55:22;5.63;;;1.60;;
14414;SDS011;7307;50.852;4.314;2022-07-29T07:57:48;3.58;;;1.65;;
14414;SDS011;7307;50.852;4.314;2022-07-29T08:00:14;3.58;;;1.40;;
14414;SDS011;7307;50.852;4.314;2022-07-29T08:02:41;3.67;;;1.60;;
14414;SDS011;7307;50.852;4.314;2022-07-29T08:05:07;3.30;;;1.92;;
14414;SDS011;7307;50.852;4.314;2022-07-29T08:07:34;2.42;;;1.40;;
14414;SDS011;7307;50.852;4.314;2022-07-29T08:09:59;3.15;;;1.88;;
14414;SDS011;7307;50.852;4.314;2022-07-29T08:12:25;6.45;;;1.60;;
14414;SDS011;7307;50.852;4.314;2022-07-29T08:14:51;2.42;;;1.33;;
14414;SDS011;7307;50.852;4.314;2022-07-29T08:17:16;2.13;;;1.40;;
14414;SDS011;7307;50.852;4.314;2022-07-29T08:19:42;1.92;;;1.40;;
14414;SDS011;7307;50.852;4.314;2022-07-29T08:22:08;3.75;;;1.50;;
14414;SDS011;7307;50.852;4.314;2022-07-29T08:24:34;3.58;;;1.65;;
14414;SDS011;7307;50.852;4.314;2022-07-29T08:27:09;2.40;;;1.58;;
14414;SDS011;7307;50.852;4.314;2022-07-29T08:29:35;3.83;;;1.52;;
14414;SDS011;7307;50.852;4.314;2022-07-29T08:32:01;2.45;;;1.23;;
14414;SDS011;7307;50.852;4.314;2022-07-29T08:34:27;1.85;;;1.42;;
14414;SDS011;7307;50.852;4.314;2022-07-29T08:36:53;3.58;;;1.55;;
14414;SDS011;7307;50.852;4.314;2022-07-29T08:39:22;2.65;;;1.40;;
14414;SDS011;7307;50.852;4.314;2022-07-29T08:41:49;3.10;;;1.90;;
14414;SDS011;7307;50.852;4.314;2022-07-29T08:44:16;1.98;;;1.35;;
14414;SDS011;7307;50.852;4.314;2022-07-29T08:46:46;3.28;;;1.58;;
14414;SDS011;7307;50.852;4.314;2022-07-29T08:49:12;2.85;;;1.63;;
14414;SDS011;7307;50.852;4.314;2022-07-29T08:51:39;3.75;;;1.58;;
14414;SDS011;7307;50.852;4.314;2022-07-29T08:54:05;3.92;;;1.90;;
14414;SDS011;7307;50.852;4.314;2022-07-29T08:56:33;3.47;;;1.70;;
14414;SDS011;7307;50.852;4.314;2022-07-29T08:58:59;2.03;;;1.52;;
14414;SDS011;7307;50.852;4.314;2022-07-29T09:01:29;5.22;;;1.95;;
14414;SDS011;7307;50.852;4.314;2022-07-29T09:03:58;4.30;;;1.60;;
14414;SDS011;7307;50.852;4.314;2022-07-29T09:06:26;2.33;;;1.20;;
14414;SDS011;7307;50.852;4.314;2022-07-29T09:08:58;2.13;;;1.50;;
14414;SDS011;7307;50.852;4.314;2022-07-29T09:11:25;3.33;;;1.70;;
14414;SDS011;7307;50.852;4.314;2022-07-29T09:13:51;2.28;;;1.17;;
14414;SDS011;7307;50.852;4.314;2022-07-29T09:16:17;2.47;;;1.40;;
14414;SDS011;7307;50.852;4.314;2022-07-29T09:18:44;3.70;;;1.60;;
14414;SDS011;7307;50.852;4.314;2022-07-29T09:21:12;5.00;;;1.60;;
14414;SDS011;7307;50.852;4.314;2022-07-29T09:26:41;4.82;;;1.50;;
14414;SDS011;7307;50.852;4.314;2022-07-29T09:29:12;3.47;;;1.38;;
14414;SDS011;7307;50.852;4.314;2022-07-29T09:31:44;1.88;;;1.35;;
14414;SDS011;7307;50.852;4.314;2022-07-29T09:34:14;2.47;;;1.30;;
14414;SDS011;7307;50.852;4.314;2022-07-29T09:36:48;5.95;;;1.60;;
14414;SDS011;7307;50.852;4.314;2022-07-29T09:39:15;7.18;;;1.65;;
14414;SDS011;7307;50.852;4.314;2022-07-29T09:41:55;7.38;;;2.10;;
14414;SDS011;7307;50.852;4.314;2022-07-29T09:44:22;6.43;;;2.13;;
14414;SDS011;7307;50.852;4.314;2022-07-29T09:49:24;7.40;;;2.50;;
14414;SDS011;7307;50.852;4.314;2022-07-29T09:52:03;3.65;;;2.03;;
14414;SDS011;7307;50.852;4.314;2022-07-29T09:54:31;7.13;;;2.25;;
14414;SDS011;7307;50.852;4.314;2022-07-29T09:57:02;6.07;;;1.58;;
14414;SDS011;7307;50.852;4.314;2022-07-29T09:59:33;6.88;;;1.73;;
14414;SDS011;7307;50.852;4.314;2022-07-29T10:01:59;3.72;;;1.60;;
14414;SDS011;7307;50.852;4.314;2022-07-29T10:04:41;3.50;;;1.52;;
14414;SDS011;7307;50.852;4.314;2022-07-29T10:07:07;5.60;;;2.00;;
14414;SDS011;7307;50.852;4.314;2022-07-29T10:09:34;10.13;;;2.35;;
14414;SDS011;7307;50.852;4.314;2022-07-29T10:14:30;7.65;;;2.17;;
14414;SDS011;7307;50.852;4.314;2022-07-29T10:16:57;5.70;;;2.10;;
14414;SDS011;7307;50.852;4.314;2022-07-29T10:19:25;4.65;;;2.13;;
14414;SDS011;7307;50.852;4.314;2022-07-29T10:21:51;4.28;;;1.60;;
14414;SDS011;7307;50.852;4.314;2022-07-29T10:24:17;4.93;;;2.40;;
14414;SDS011;7307;50.852;4.314;2022-07-29T10:26:44;4.10;;;2.08;;
14414;SDS011;7307;50.852;4.314;2022-07-29T10:29:11;4.97;;;1.98;;
14414;SDS011;7307;50.852;4.314;2022-07-29T10:31:44;5.07;;;2.40;;
14414;SDS011;7307;50.852;4.314;2022-07-29T10:40:31;5.85;;;2.25;;
14414;SDS011;7307;50.852;4.314;2022-07-29T10:43:35;5.22;;;1.98;;
14414;SDS011;7307;50.852;4.314;2022-07-29T10:46:05;4.35;;;2.22;;
14414;SDS011;7307;50.852;4.314;2022-07-29T10:48:32;8.70;;;2.03;;
14414;SDS011;7307;50.852;4.314;2022-07-29T10:56:25;5.57;;;2.15;;
14414;SDS011;7307;50.852;4.314;2022-07-29T11:01:45;3.67;;;2.05;;
14414;SDS011;7307;50.852;4.314;2022-07-29T11:04:12;3.25;;;1.65;;
14414;SDS011;7307;50.852;4.314;2022-07-29T11:09:29;7.88;;;2.28;;
14414;SDS011;7307;50.852;4.314;2022-07-29T11:11:55;3.33;;;1.90;;
14414;SDS011;7307;50.852;4.314;2022-07-29T11:14:55;6.45;;;2.10;;
14414;SDS011;7307;50.852;4.314;2022-07-29T11:17:23;5.65;;;2.33;;
14414;SDS011;7307;50.852;4.314;2022-07-29T11:19:49;4.78;;;1.70;;
14414;SDS011;7307;50.852;4.314;2022-07-29T11:22:47;5.78;;;1.88;;
14414;SDS011;7307;50.852;4.314;2022-07-29T11:25:15;4.03;;;1.98;;
14414;SDS011;7307;50.852;4.314;2022-07-29T11:27:42;4.68;;;2.85;;
14414;SDS011;7307;50.852;4.314;2022-07-29T11:30:11;5.07;;;2.40;;
14414;SDS011;7307;50.852;4.314;2022-07-29T11:32:38;6.82;;;2.33;;
14414;SDS011;7307;50.852;4.314;2022-07-29T11:35:21;3.63;;;2.45;;
14414;SDS011;7307;50.852;4.314;2022-07-29T11:43:48;4.80;;;2.30;;
14414;SDS011;7307;50.852;4.314;2022-07-29T11:49:13;4.82;;;2.10;;
14414;SDS011;7307;50.852;4.314;2022-07-29T11:51:54;3.17;;;1.90;;
14414;SDS011;7307;50.852;4.314;2022-07-29T11:54:23;5.85;;;1.90;;
14414;SDS011;7307;50.852;4.314;2022-07-29T11:56:51;4.03;;;1.92;;
14414;SDS011;7307;50.852;4.314;2022-07-29T11:59:18;3.58;;;2.03;;
14414;SDS011;7307;50.852;4.314;2022-07-29T12:04:20;3.42;;;2.00;;
14414;SDS011;7307;50.852;4.314;2022-07-29T12:06:51;4.85;;;2.05;;
14414;SDS011;7307;50.852;4.314;2022-07-29T12:09:22;6.38;;;2.42;;
14414;SDS011;7307;50.852;4.314;2022-07-29T12:11:56;4.40;;;2.50;;
14414;SDS011;7307;50.852;4.314;2022-07-29T12:14:28;4.88;;;1.52;;
14414;SDS011;7307;50.852;4.314;2022-07-29T12:16:56;2.90;;;2.17;;
14414;SDS011;7307;50.852;4.314;2022-07-29T12:19:22;6.40;;;2.15;;
14414;SDS011;7307;50.852;4.314;2022-07-29T12:21:49;6.28;;;2.08;;
14414;SDS011;7307;50.852;4.314;2022-07-29T12:24:15;3.97;;;1.73;;
14414;SDS011;7307;50.852;4.314;2022-07-29T12:26:51;5.55;;;2.20;;
14414;SDS011;7307;50.852;4.314;2022-07-29T12:29:22;7.47;;;1.92;;
14414;SDS011;7307;50.852;4.314;2022-07-29T12:31:51;5.10;;;1.85;;
14414;SDS011;7307;50.852;4.314;2022-07-29T12:34:22;4.65;;;2.00;;
14414;SDS011;7307;50.852;4.314;2022-07-29T12:36:51;2.60;;;1.48;;
14414;SDS011;7307;50.852;4.314;2022-07-29T12:39:17;3.17;;;1.50;;
14414;SDS011;7307;50.852;4.314;2022-07-29T12:41:43;3.97;;;1.90;;
14414;SDS011;7307;50.852;4.314;2022-07-29T12:44:09;3.63;;;1.80;;
14414;SDS011;7307;50.852;4.314;2022-07-29T12:46:35;2.97;;;1.70;;
14414;SDS011;7307;50.852;4.314;2022-07-29T12:49:01;3.20;;;1.70;;
14414;SDS011;7307;50.852;4.314;2022-07-29T12:51:31;3.15;;;1.70;;
14414;SDS011;7307;50.852;4.314;2022-07-29T12:54:03;4.55;;;2.05;;
14414;SDS011;7307;50.852;4.314;2022-07-29T12:56:38;1.77;;;1.58;;
14414;SDS011;7307;50.852;4.314;2022-07-29T12:59:16;5.65;;;1.70;;
14414;SDS011;7307;50.852;4.314;2022-07-29T13:01:43;2.33;;;1.58;;
14414;SDS011;7307;50.852;4.314;2022-07-29T13:04:09;4.55;;;1.65;;
14414;SDS011;7307;50.852;4.314;2022-07-29T13:09:17;3.00;;;1.67;;
14414;SDS011;7307;50.852;4.314;2022-07-29T13:11:45;2.25;;;1.85;;
14414;SDS011;7307;50.852;4.314;2022-07-29T13:14:36;3.90;;;1.88;;
14414;SDS011;7307;50.852;4.314;2022-07-29T13:17:06;5.60;;;1.70;;
14414;SDS011;7307;50.852;4.314;2022-07-29T13:19:33;1.50;;;1.40;;
14414;SDS011;7307;50.852;4.314;2022-07-29T13:22:01;3.50;;;1.50;;
14414;SDS011;7307;50.852;4.314;2022-07-29T13:24:27;3.17;;;1.48;;
14414;SDS011;7307;50.852;4.314;2022-07-29T13:26:53;3.17;;;1.70;;
14414;SDS011;7307;50.852;4.314;2022-07-29T13:29:18;3.72;;;1.60;;
14414;SDS011;7307;50.852;4.314;2022-07-29T13:31:44;2.03;;;1.63;;
14414;SDS011;7307;50.852;4.314;2022-07-29T13:34:09;2.20;;;1.60;;
14414;SDS011;7307;50.852;4.314;2022-07-29T13:36:35;2.78;;;1.60;;
14414;SDS011;7307;50.852;4.314;2022-07-29T13:39:01;3.15;;;1.67;;
14414;SDS011;7307;50.852;4.314;2022-07-29T13:41:30;2.80;;;1.50;;
14414;SDS011;7307;50.852;4.314;2022-07-29T13:43:56;2.75;;;1.60;;
14414;SDS011;7307;50.852;4.314;2022-07-29T13:46:21;2.75;;;1.77;;
14414;SDS011;7307;50.852;4.314;2022-07-29T13:48:47;1.70;;;1.38;;
14414;SDS011;7307;50.852;4.314;2022-07-29T13:51:13;2.85;;;1.27;;
14414;SDS011;7307;50.852;4.314;2022-07-29T13:53:38;3.13;;;1.70;;
14414;SDS011;7307;50.852;4.314;2022-07-29T13:56:04;2.65;;;1.38;;
14414;SDS011;7307;50.852;4.314;2022-07-29T13:58:32;2.25;;;1.42;;
14414;SDS011;7307;50.852;4.314;2022-07-29T14:00:58;3.33;;;1.80;;
14414;SDS011;7307;50.852;4.314;2022-07-29T14:03:25;2.35;;;1.80;;
14414;SDS011;7307;50.852;4.314;2022-07-29T14:05:50;4.32;;;1.65;;
14414;SDS011;7307;50.852;4.314;2022-07-29T14:08:16;1.38;;;1.17;;
14414;SDS011;7307;50.852;4.314;2022-07-29T14:10:42;2.45;;;1.65;;
14414;SDS011;7307;50.852;4.314;2022-07-29T14:13:09;2.65;;;1.42;;
14414;SDS011;7307;50.852;4.314;2022-07-29T14:15:35;4.25;;;1.65;;
14414;SDS011;7307;50.852;4.314;2022-07-29T14:18:00;2.47;;;1.58;;
14414;SDS011;7307;50.852;4.314;2022-07-29T14:20:26;2.97;;;1.77;;
14414;SDS011;7307;50.852;4.314;2022-07-29T14:22:54;2.22;;;1.45;;
14414;SDS011;7307;50.852;4.314;2022-07-29T14:25:20;2.10;;;1.45;;
14414;SDS011;7307;50.852;4.314;2022-07-29T14:27:46;2.20;;;1.40;;
14414;SDS011;7307;50.852;4.314;2022-07-29T14:30:12;1.90;;;1.70;;
14414;SDS011;7307;50.852;4.314;2022-07-29T14:32:37;2.50;;;1.60;;
14414;SDS011;7307;50.852;4.314;2022-07-29T14:35:04;2.55;;;1.60;;
14414;SDS011;7307;50.852;4.314;2022-07-29T14:37:30;4.15;;;1.65;;
14414;SDS011;7307;50.852;4.314;2022-07-29T14:39:55;3.15;;;1.70;;
14414;SDS011;7307;50.852;4.314;2022-07-29T14:42:24;2.08;;;1.20;;
14414;SDS011;7307;50.852;4.314;2022-07-29T14:44:50;2.95;;;1.50;;
14414;SDS011;7307;50.852;4.314;2022-07-29T14:47:15;2.10;;;1.52;;
14414;SDS011;7307;50.852;4.314;2022-07-29T14:49:41;3.28;;;1.27;;
14414;SDS011;7307;50.852;4.314;2022-07-29T14:52:07;2.58;;;1.42;;
14414;SDS011;7307;50.852;4.314;2022-07-29T14:54:32;3.22;;;1.50;;
14414;SDS011;7307;50.852;4.314;2022-07-29T14:56:58;2.35;;;1.30;;
14414;SDS011;7307;50.852;4.314;2022-07-29T14:59:24;3.00;;;1.30;;
14414;SDS011;7307;50.852;4.314;2022-07-29T15:01:51;1.85;;;1.60;;
14414;SDS011;7307;50.852;4.314;2022-07-29T15:04:16;3.70;;;1.23;;
14414;SDS011;7307;50.852;4.314;2022-07-29T15:06:42;3.22;;;1.60;;
14414;SDS011;7307;50.852;4.314;2022-07-29T15:09:08;2.25;;;1.58;;
14414;SDS011;7307;50.852;4.314;2022-07-29T15:11:33;4.57;;;2.00;;
14414;SDS011;7307;50.852;4.314;2022-07-29T15:13:59;3.03;;;1.65;;
14414;SDS011;7307;50.852;4.314;2022-07-29T15:16:24;1.60;;;1.50;;
14414;SDS011;7307;50.852;4.314;2022-07-29T15:18:50;3.08;;;1.75;;
14414;SDS011;7307;50.852;4.314;2022-07-29T15:21:15;2.28;;;1.38;;
14414;SDS011;7307;50.852;4.314;2022-07-29T15:23:41;2.38;;;1.75;;
14414;SDS011;7307;50.852;4.314;2022-07-29T15:26:07;1.80;;;1.67;;
14414;SDS011;7307;50.852;4.314;2022-07-29T15:28:32;1.95;;;1.58;;
14414;SDS011;7307;50.852;4.314;2022-07-29T15:30:58;2.28;;;1.40;;
14414;SDS011;7307;50.852;4.314;2022-07-29T15:33:23;2.47;;;1.80;;
14414;SDS011;7307;50.852;4.314;2022-07-29T15:35:50;2.42;;;1.50;;
14414;SDS011;7307;50.852;4.314;2022-07-29T15:38:16;4.40;;;1.80;;
14414;SDS011;7307;50.852;4.314;2022-07-29T15:40:42;2.47;;;1.55;;
14414;SDS011;7307;50.852;4.314;2022-07-29T15:43:08;2.78;;;1.73;;
14414;SDS011;7307;50.852;4.314;2022-07-29T15:45:35;2.40;;;1.98;;
14414;SDS011;7307;50.852;4.314;2022-07-29T15:48:01;2.92;;;1.90;;
14414;SDS011;7307;50.852;4.314;2022-07-29T15:50:27;2.00;;;1.77;;
14414;SDS011;7307;50.852;4.314;2022-07-29T15:52:53;4.55;;;1.88;;
14414;SDS011;7307;50.852;4.314;2022-07-29T15:55:18;2.78;;;1.67;;
14414;SDS011;7307;50.852;4.314;2022-07-29T15:57:44;3.28;;;2.00;;